createdAt,value
2022-11-23T00:00:43.576Z,12.43
2022-11-23T00:03:15.827Z,13.80
2022-11-23T00:05:42.804Z,13.70
2022-11-23T00:08:09.876Z,10.27
2022-11-23T00:10:37.207Z,12.80
2022-11-23T00:13:04.257Z,12.87
2022-11-23T00:15:32.590Z,13.13
2022-11-23T00:18:02.844Z,14.00
2022-11-23T00:20:29.982Z,13.67
2022-11-23T00:22:57.176Z,12.73
2022-11-23T00:25:24.285Z,12.73
2022-11-23T00:27:51.410Z,13.57
2022-11-23T00:30:18.619Z,13.07
2022-11-23T00:32:45.879Z,11.50
2022-11-23T00:35:12.935Z,12.07
2022-11-23T00:37:40.284Z,13.30
2022-11-23T00:40:07.900Z,11.97
2022-11-23T00:42:37.983Z,10.03
2022-11-23T00:45:06.105Z,9.67
2022-11-23T00:47:33.291Z,10.03
2022-11-23T00:50:00.491Z,10.27
2022-11-23T00:52:27.797Z,10.63
2022-11-23T00:54:55.018Z,9.70
2022-11-23T00:57:22.319Z,9.07
2022-11-23T00:59:49.633Z,9.00
2022-11-23T01:02:16.789Z,8.97
2022-11-23T01:04:43.889Z,9.07
2022-11-23T01:07:11.322Z,10.23
2022-11-23T01:09:38.428Z,9.93
2022-11-23T01:12:05.694Z,9.07
2022-11-23T01:14:32.864Z,11.00
2022-11-23T01:17:00.091Z,9.23
2022-11-23T01:19:27.310Z,10.23
2022-11-23T01:21:54.649Z,9.40
2022-11-23T01:24:22.471Z,9.83
2022-11-23T01:26:53.206Z,10.13
2022-11-23T01:29:20.775Z,8.13
2022-11-23T01:31:48.148Z,9.23
2022-11-23T01:34:15.691Z,10.00
2022-11-23T01:36:43.026Z,11.43
2022-11-23T01:39:10.821Z,11.20
2022-11-23T01:41:42.078Z,11.57
2022-11-23T01:44:25.820Z,11.10
2022-11-23T01:46:53.075Z,12.63
2022-11-23T01:49:20.436Z,12.23
2022-11-23T01:51:49.399Z,11.90
2022-11-23T01:54:24.918Z,12.33
2022-11-23T01:56:55.890Z,10.80
2022-11-23T01:59:23.151Z,9.83
2022-11-23T02:01:50.526Z,11.50
2022-11-23T02:04:21.175Z,11.13
2022-11-23T02:06:48.445Z,11.43
2022-11-23T02:09:16.801Z,10.67
2022-11-23T02:11:44.002Z,11.93
2022-11-23T02:14:11.146Z,11.97
2022-11-23T02:16:38.795Z,12.30
2022-11-23T02:19:08.978Z,12.80
2022-11-23T02:21:35.984Z,11.97
2022-11-23T02:24:13.369Z,11.50
2022-11-23T02:26:40.720Z,12.90
2022-11-23T02:29:14.595Z,12.83
2022-11-23T02:31:41.803Z,11.27
2022-11-23T02:34:09.071Z,11.33
2022-11-23T02:36:48.896Z,10.47
2022-11-23T02:39:32.188Z,10.27
2022-11-23T02:41:59.596Z,11.07
2022-11-23T02:45:11.062Z,10.50
2022-11-23T02:47:38.269Z,8.90
2022-11-23T02:50:05.535Z,7.50
2022-11-23T02:52:32.592Z,9.47
2022-11-23T02:54:59.872Z,9.47
2022-11-23T02:57:26.878Z,9.67
2022-11-23T02:59:54.249Z,8.80
2022-11-23T03:02:21.400Z,9.20
2022-11-23T03:04:48.762Z,9.07
2022-11-23T03:07:15.869Z,8.20
2022-11-23T03:09:43.036Z,7.13
2022-11-23T03:12:10.247Z,7.97
2022-11-23T03:14:38.854Z,8.40
2022-11-23T03:17:06.011Z,10.17
2022-11-23T03:19:33.295Z,9.77
2022-11-23T03:22:00.618Z,10.43
2022-11-23T03:24:27.757Z,10.60
2022-11-23T03:26:54.872Z,9.00
2022-11-23T03:29:26.379Z,9.27
2022-11-23T03:31:56.492Z,9.67
2022-11-23T03:34:23.901Z,9.60
2022-11-23T03:36:50.990Z,8.90
2022-11-23T03:39:18.252Z,10.73
2022-11-23T03:41:45.458Z,11.43
2022-11-23T03:44:12.854Z,8.87
2022-11-23T03:46:40.112Z,9.33
2022-11-23T03:49:07.190Z,9.63
2022-11-23T03:51:34.260Z,8.73
2022-11-23T03:54:01.387Z,8.43
2022-11-23T03:56:28.492Z,9.43
2022-11-23T03:58:55.587Z,9.67
2022-11-23T04:01:22.880Z,15.03
2022-11-23T04:03:50.073Z,24.50
2022-11-23T04:06:17.179Z,25.80
2022-11-23T04:08:44.610Z,11.60
2022-11-23T04:11:11.848Z,10.77
2022-11-23T04:13:39.205Z,9.50
2022-11-23T04:16:07.464Z,8.77
2022-11-23T04:18:34.709Z,8.43
2022-11-23T04:21:01.888Z,9.90
2022-11-23T04:23:29.063Z,8.40
2022-11-23T04:25:56.166Z,7.93
2022-11-23T04:28:23.353Z,8.17
2022-11-23T04:30:50.434Z,8.07
2022-11-23T04:33:17.741Z,8.70
2022-11-23T04:35:44.942Z,9.43
2022-11-23T04:38:12.173Z,9.47
2022-11-23T04:40:39.793Z,7.77
2022-11-23T04:43:06.981Z,8.27
2022-11-23T04:45:34.109Z,8.70
2022-11-23T04:48:01.220Z,7.77
2022-11-23T04:50:28.397Z,8.03
2022-11-23T04:52:55.653Z,7.77
2022-11-23T04:55:22.843Z,8.27
2022-11-23T04:57:49.967Z,8.77
2022-11-23T05:00:17.587Z,8.57
2022-11-23T05:02:44.971Z,8.20
2022-11-23T05:05:12.038Z,8.07
2022-11-23T05:07:39.213Z,9.23
2022-11-23T05:10:07.079Z,8.50
2022-11-23T05:12:34.452Z,8.90
2022-11-23T05:15:01.604Z,9.33
2022-11-23T05:17:28.814Z,11.30
2022-11-23T05:19:56.440Z,10.10
2022-11-23T05:22:23.606Z,11.73
2022-11-23T05:24:50.752Z,11.50
2022-11-23T05:27:17.852Z,9.30
2022-11-23T05:29:45.163Z,9.27
2022-11-23T05:32:12.540Z,8.73
2022-11-23T05:34:39.665Z,8.37
2022-11-23T05:37:06.925Z,8.97
2022-11-23T05:39:34.505Z,11.80
2022-11-23T05:42:01.662Z,11.23
2022-11-23T05:44:28.637Z,10.07
2022-11-23T05:46:56.055Z,9.63
2022-11-23T05:49:23.230Z,11.17
2022-11-23T05:51:50.373Z,10.27
2022-11-23T05:54:17.607Z,9.67
2022-11-23T05:56:44.553Z,10.70
2022-11-23T05:59:12.280Z,10.07
2022-11-23T06:01:39.277Z,10.30
2022-11-23T06:04:06.888Z,9.90
2022-11-23T06:06:34.215Z,9.73
2022-11-23T06:09:01.252Z,9.50
2022-11-23T06:11:28.558Z,9.70
2022-11-23T06:13:55.899Z,8.90
2022-11-23T06:16:22.901Z,8.90
2022-11-23T06:18:50.048Z,8.63
2022-11-23T06:21:17.141Z,8.47
2022-11-23T06:23:44.510Z,10.10
2022-11-23T06:26:11.565Z,9.57
2022-11-23T06:28:38.635Z,8.43
2022-11-23T06:31:06.943Z,8.33
2022-11-23T06:33:34.732Z,8.43
2022-11-23T06:36:02.722Z,9.07
2022-11-23T06:38:30.128Z,10.97
2022-11-23T06:41:00.733Z,7.30
2022-11-23T06:43:28.609Z,7.87
2022-11-23T06:45:56.091Z,7.43
2022-11-23T06:48:23.149Z,5.00
2022-11-23T06:50:50.197Z,5.47
2022-11-23T06:53:17.240Z,5.97
2022-11-23T06:55:44.419Z,5.90
2022-11-23T06:58:12.020Z,13.20
2022-11-23T07:00:39.297Z,9.47
2022-11-23T07:03:06.412Z,8.07
2022-11-23T07:05:33.661Z,8.30
2022-11-23T07:08:00.774Z,7.73
2022-11-23T07:10:27.813Z,7.47
2022-11-23T07:12:55.337Z,7.60
2022-11-23T07:15:22.657Z,7.67
2022-11-23T07:17:50.101Z,7.00
2022-11-23T07:20:17.460Z,10.53
2022-11-23T07:22:44.796Z,7.87
2022-11-23T07:25:16.672Z,7.03
2022-11-23T07:27:44.497Z,13.83
2022-11-23T07:30:12.033Z,7.63
2022-11-23T07:32:39.207Z,7.33
2022-11-23T07:35:06.595Z,6.33
2022-11-23T07:37:33.737Z,7.20
2022-11-23T07:40:01.410Z,6.50
2022-11-23T07:42:34.915Z,5.50
2022-11-23T07:45:04.156Z,4.90
2022-11-23T07:47:31.439Z,5.10
2022-11-23T07:49:58.654Z,5.33
2022-11-23T07:52:26.037Z,6.13
2022-11-23T07:54:53.583Z,7.07
2022-11-23T07:57:20.960Z,6.20
2022-11-23T07:59:48.041Z,6.17
2022-11-23T08:02:15.921Z,4.90
2022-11-23T08:04:43.289Z,4.77
2022-11-23T08:07:10.973Z,4.13
2022-11-23T08:09:38.344Z,3.97
2022-11-23T08:12:05.923Z,4.33
2022-11-23T08:14:33.306Z,9.47
2022-11-23T08:17:00.709Z,25.47
2022-11-23T08:19:28.095Z,15.57
2022-11-23T08:21:55.106Z,7.90
2022-11-23T08:24:22.885Z,10.47
2022-11-23T08:26:49.812Z,12.57
2022-11-23T08:29:17.298Z,9.67
2022-11-23T08:31:44.576Z,12.27
2022-11-23T08:34:11.826Z,11.60
2022-11-23T08:36:38.808Z,8.97
2022-11-23T08:39:05.855Z,9.53
2022-11-23T08:41:33.548Z,8.30
2022-11-23T08:44:00.532Z,7.30
2022-11-23T08:46:27.981Z,6.27
2022-11-23T08:48:54.904Z,5.97
2022-11-23T08:51:24.803Z,6.30
2022-11-23T08:53:52.237Z,8.07
2022-11-23T08:56:19.265Z,15.33
2022-11-23T08:58:46.229Z,7.07
2022-11-23T09:01:14.842Z,4.30
2022-11-23T09:03:42.032Z,5.00
2022-11-23T09:06:10.037Z,4.70
2022-11-23T09:08:37.177Z,4.40
2022-11-23T09:11:05.926Z,4.30
2022-11-23T09:13:34.780Z,4.10
2022-11-23T09:16:02.144Z,3.37
2022-11-23T09:18:33.321Z,4.70
2022-11-23T09:21:03.412Z,3.87
2022-11-23T09:23:30.798Z,3.70
2022-11-23T09:26:01.506Z,3.30
2022-11-23T09:28:28.732Z,3.57
2022-11-23T09:30:56.585Z,3.17
2022-11-23T09:33:24.264Z,2.97
2022-11-23T09:36:01.331Z,3.20
2022-11-23T09:38:44.769Z,3.23
2022-11-23T09:41:40.227Z,2.80
2022-11-23T09:44:27.952Z,3.00
2022-11-23T09:47:07.700Z,3.30
2022-11-23T09:49:44.900Z,2.90
2022-11-23T09:52:16.975Z,3.90
2022-11-23T09:54:44.602Z,4.57
2022-11-23T09:57:13.295Z,4.33
2022-11-23T10:00:13.853Z,4.10
2022-11-23T10:02:41.151Z,4.23
2022-11-23T10:05:08.426Z,4.67
2022-11-23T10:08:03.110Z,5.07
2022-11-23T10:10:50.211Z,5.63
2022-11-23T10:13:20.003Z,4.17
2022-11-23T10:16:12.160Z,5.07
2022-11-23T10:19:05.892Z,4.80
2022-11-23T10:21:41.402Z,3.47
2022-11-23T10:24:08.452Z,4.37
2022-11-23T10:26:38.349Z,4.13
2022-11-23T10:29:27.566Z,3.63
2022-11-23T10:31:57.344Z,3.70
2022-11-23T10:34:49.791Z,3.40
2022-11-23T10:37:17.025Z,3.00
2022-11-23T10:39:44.481Z,2.93
2022-11-23T10:42:36.919Z,4.03
2022-11-23T10:45:05.772Z,4.93
2022-11-23T10:47:49.070Z,4.70
2022-11-23T10:50:24.936Z,7.63
2022-11-23T10:53:22.807Z,7.17
2022-11-23T10:56:01.772Z,10.07
2022-11-23T10:58:36.468Z,8.13
2022-11-23T11:01:08.290Z,8.83
2022-11-23T11:03:35.639Z,8.67
2022-11-23T11:06:10.823Z,6.93
2022-11-23T11:08:50.588Z,5.10
2022-11-23T11:11:37.754Z,5.87
2022-11-23T11:14:15.105Z,6.97
2022-11-23T11:16:56.653Z,5.30
2022-11-23T11:19:27.777Z,5.53
2022-11-23T11:21:55.119Z,6.53
2022-11-23T11:24:27.448Z,6.50
2022-11-23T11:26:59.768Z,5.70
2022-11-23T11:29:43.956Z,5.70
2022-11-23T11:32:15.415Z,6.47
2022-11-23T11:34:54.131Z,6.10
2022-11-23T11:37:39.070Z,5.37
2022-11-23T11:40:24.107Z,5.50
2022-11-23T11:42:55.636Z,6.30
2022-11-23T11:45:26.304Z,6.23
2022-11-23T11:48:00.115Z,6.87
2022-11-23T11:50:32.151Z,6.10
2022-11-23T11:53:08.335Z,6.40
2022-11-23T11:56:13.182Z,6.30
2022-11-23T11:58:42.970Z,6.87
2022-11-23T12:01:22.475Z,5.13
2022-11-23T12:03:56.173Z,5.67
2022-11-23T12:06:30.739Z,4.10
2022-11-23T12:09:05.669Z,5.97
2022-11-23T12:11:33.076Z,6.13
2022-11-23T12:14:02.005Z,5.67
2022-11-23T12:16:31.978Z,5.47
2022-11-23T12:19:17.810Z,17.47
2022-11-23T12:22:03.210Z,11.67
2022-11-23T12:24:40.553Z,9.37
2022-11-23T12:27:33.095Z,7.13
2022-11-23T12:30:21.816Z,6.77
2022-11-23T12:33:11.416Z,7.97
2022-11-23T12:35:53.634Z,14.17
2022-11-23T12:38:57.309Z,21.20
2022-11-23T12:41:50.398Z,10.07
2022-11-23T12:44:42.238Z,8.83
2022-11-23T12:47:27.713Z,5.37
2022-11-23T12:49:59.509Z,5.97
2022-11-23T12:52:39.398Z,6.10
2022-11-23T12:55:48.899Z,4.93
2022-11-23T12:58:30.349Z,5.27
2022-11-23T13:00:59.100Z,4.37
2022-11-23T13:03:50.415Z,4.40
2022-11-23T13:07:30.319Z,6.37
2022-11-23T13:10:04.430Z,5.40
2022-11-23T13:12:58.343Z,5.03
2022-11-23T13:16:02.375Z,5.23
2022-11-23T13:18:41.547Z,4.70
2022-11-23T13:21:36.670Z,5.70
2022-11-23T13:24:03.734Z,5.00
2022-11-23T13:26:33.683Z,5.00
2022-11-23T13:29:01.733Z,5.40
2022-11-23T13:31:31.270Z,4.77
2022-11-23T13:34:02.980Z,5.13
2022-11-23T13:36:56.228Z,5.00
2022-11-23T13:39:42.073Z,5.77
2022-11-23T13:42:09.246Z,4.90
2022-11-23T13:44:36.537Z,5.20
2022-11-23T13:47:16.428Z,5.70
2022-11-23T13:50:17.555Z,4.83
2022-11-23T13:52:50.849Z,4.93
2022-11-23T13:55:20.820Z,5.93
2022-11-23T13:58:23.527Z,6.30
2022-11-23T14:00:53.080Z,4.77
2022-11-23T14:03:52.178Z,4.90
2022-11-23T14:06:38.090Z,4.10
2022-11-23T14:09:18.560Z,5.07
2022-11-23T14:12:03.211Z,4.77
2022-11-23T14:15:15.193Z,6.07
2022-11-23T14:18:13.311Z,4.73
2022-11-23T14:20:52.662Z,4.10
2022-11-23T14:23:24.508Z,4.73
2022-11-23T14:26:14.925Z,5.20
2022-11-23T14:29:19.753Z,4.50
2022-11-23T14:32:01.758Z,5.93
2022-11-23T14:35:11.086Z,6.40
2022-11-23T14:38:02.442Z,4.97
2022-11-23T14:40:57.260Z,6.13
2022-11-23T14:43:24.516Z,5.40
2022-11-23T14:45:51.801Z,5.90
2022-11-23T14:48:32.491Z,6.30
2022-11-23T14:51:06.923Z,6.83
2022-11-23T14:53:43.931Z,5.27
2022-11-23T14:56:23.959Z,5.50
2022-11-23T14:58:51.616Z,6.00
2022-11-23T15:01:22.690Z,5.30
2022-11-23T15:04:00.035Z,5.40
2022-11-23T15:06:31.953Z,5.20
2022-11-23T15:09:09.677Z,5.80
2022-11-23T15:11:37.541Z,6.23
2022-11-23T15:14:17.265Z,13.47
2022-11-23T15:16:44.532Z,7.17
2022-11-23T15:19:33.236Z,8.37
2022-11-23T15:22:00.419Z,7.73
2022-11-23T15:24:27.610Z,8.53
2022-11-23T15:26:57.830Z,9.63
2022-11-23T15:29:51.836Z,23.70
2022-11-23T15:32:32.631Z,25.23
2022-11-23T15:35:03.763Z,29.67
2022-11-23T15:37:31.017Z,17.87
2022-11-23T15:39:58.291Z,29.87
2022-11-23T15:42:25.746Z,10.43
2022-11-23T15:44:54.897Z,9.80
2022-11-23T15:47:27.918Z,10.70
2022-11-23T15:50:10.537Z,13.47
2022-11-23T15:52:38.064Z,12.70
2022-11-23T15:55:09.791Z,12.90
2022-11-23T15:57:37.745Z,12.07
2022-11-23T16:00:05.588Z,11.30
2022-11-23T16:02:32.913Z,10.20
2022-11-23T16:05:16.321Z,10.27
2022-11-23T16:07:59.907Z,9.50
2022-11-23T16:10:30.595Z,9.43
2022-11-23T16:12:59.045Z,8.67
2022-11-23T16:15:38.152Z,13.53
2022-11-23T16:18:06.457Z,10.40
2022-11-23T16:20:33.511Z,8.83
2022-11-23T16:23:00.821Z,9.27
2022-11-23T16:25:34.037Z,7.47
2022-11-23T16:28:15.552Z,7.77
2022-11-23T16:30:44.138Z,8.37
2022-11-23T16:33:17.465Z,8.17
2022-11-23T16:35:45.322Z,10.77
2022-11-23T16:38:15.300Z,13.53
2022-11-23T16:40:43.017Z,16.23
2022-11-23T16:43:11.191Z,14.07
2022-11-23T16:45:43.133Z,11.00
2022-11-23T16:48:25.746Z,10.43
2022-11-23T16:50:53.607Z,12.23
2022-11-23T16:53:21.217Z,11.43
2022-11-23T16:55:52.209Z,11.03
2022-11-23T16:58:19.400Z,13.63
2022-11-23T17:00:48.966Z,15.57
2022-11-23T17:03:16.843Z,17.47
2022-11-23T17:05:43.988Z,18.00
2022-11-23T17:08:11.111Z,16.30
2022-11-23T17:10:38.773Z,14.50
2022-11-23T17:13:07.846Z,18.20
2022-11-23T17:15:35.036Z,23.77
2022-11-23T17:18:02.030Z,19.10
2022-11-23T17:20:29.190Z,16.85
2022-11-23T17:23:00.306Z,10.40
2022-11-23T17:25:27.596Z,9.20
2022-11-23T17:27:54.887Z,11.17
2022-11-23T17:30:22.242Z,13.57
2022-11-23T17:32:49.976Z,8.37
2022-11-23T17:35:17.288Z,7.00
2022-11-23T17:37:44.650Z,7.00
2022-11-23T17:40:19.965Z,7.47
2022-11-23T17:42:47.592Z,5.87
2022-11-23T17:45:14.817Z,6.30
2022-11-23T17:47:42.981Z,7.50
2022-11-23T17:50:17.774Z,10.33
2022-11-23T17:52:48.025Z,10.40
2022-11-23T17:55:15.543Z,10.10
2022-11-23T17:57:42.762Z,7.67
2022-11-23T18:00:20.668Z,8.97
2022-11-23T18:02:47.796Z,10.33
2022-11-23T18:05:21.150Z,13.67
2022-11-23T18:07:50.029Z,15.83
2022-11-23T18:10:17.363Z,15.53
2022-11-23T18:12:47.762Z,16.57
2022-11-23T18:15:15.173Z,15.50
2022-11-23T18:17:42.364Z,15.43
2022-11-23T18:20:10.299Z,18.53
2022-11-23T18:22:37.650Z,15.80
2022-11-23T18:25:05.188Z,19.30
2022-11-23T18:27:32.619Z,13.80
2022-11-23T18:29:59.869Z,11.23
2022-11-23T18:32:27.425Z,14.40
2022-11-23T18:34:54.781Z,14.70
2022-11-23T18:37:22.059Z,11.77
2022-11-23T18:39:49.408Z,9.93
2022-11-23T18:42:16.559Z,10.27
2022-11-23T18:44:43.877Z,12.13
2022-11-23T18:47:11.371Z,10.30
2022-11-23T18:49:38.919Z,11.23
2022-11-23T18:52:06.458Z,11.87
2022-11-23T18:54:33.722Z,14.93
2022-11-23T18:57:00.990Z,12.77
2022-11-23T18:59:50.391Z,13.07
2022-11-23T19:02:15.685Z,11.07
2022-11-23T19:04:43.308Z,13.90
2022-11-23T19:07:10.717Z,9.80
2022-11-23T19:09:37.888Z,11.00
2022-11-23T19:12:07.172Z,12.70
2022-11-23T19:14:34.327Z,9.10
2022-11-23T19:17:01.656Z,9.33
2022-11-23T19:19:29.177Z,10.37
2022-11-23T19:21:56.220Z,9.57
2022-11-23T19:24:23.441Z,8.23
2022-11-23T19:26:50.744Z,7.37
2022-11-23T19:29:23.615Z,10.90
2022-11-23T19:31:55.669Z,12.07
2022-11-23T19:34:22.924Z,9.43
2022-11-23T19:36:49.993Z,11.67
2022-11-23T19:39:17.219Z,10.00
2022-11-23T19:41:44.370Z,6.90
2022-11-23T19:44:11.679Z,7.60
2022-11-23T19:46:38.990Z,7.07
2022-11-23T19:49:07.206Z,8.03
2022-11-23T19:51:34.517Z,9.13
2022-11-23T19:54:02.284Z,8.80
2022-11-23T19:56:30.066Z,9.93
2022-11-23T19:59:01.414Z,9.77
2022-11-23T20:01:32.326Z,11.00
2022-11-23T20:04:07.895Z,10.37
2022-11-23T20:06:37.378Z,9.53
2022-11-23T20:09:11.882Z,9.67
2022-11-23T20:11:40.025Z,8.80
2022-11-23T20:14:08.066Z,10.53
2022-11-23T20:16:35.422Z,9.93
2022-11-23T20:19:07.371Z,9.57
2022-11-23T20:21:34.737Z,10.40
2022-11-23T20:24:05.458Z,11.47
2022-11-23T20:26:34.063Z,8.73
2022-11-23T20:29:01.386Z,10.90
2022-11-23T20:31:29.498Z,7.87
2022-11-23T20:33:57.079Z,8.40
2022-11-23T20:36:25.497Z,9.70
2022-11-23T20:38:53.049Z,11.57
2022-11-23T20:41:27.114Z,12.00
2022-11-23T20:44:07.734Z,11.70
2022-11-23T20:49:22.085Z,9.60
2022-11-23T20:51:49.613Z,11.67
2022-11-23T20:54:16.935Z,12.13
2022-11-23T20:56:44.470Z,10.50
2022-11-23T20:59:12.132Z,9.93
2022-11-23T21:01:41.035Z,8.30
2022-11-23T21:04:09.136Z,10.03
2022-11-23T21:06:39.312Z,10.33
2022-11-23T21:09:11.369Z,9.83
2022-11-23T21:11:57.111Z,9.13
2022-11-23T21:14:28.068Z,9.30
2022-11-23T21:16:59.451Z,8.93
2022-11-23T21:19:31.380Z,8.13
2022-11-23T21:21:59.164Z,8.60
2022-11-23T21:24:26.679Z,6.60
2022-11-23T21:26:53.942Z,6.93
2022-11-23T21:29:21.149Z,7.43
2022-11-23T21:31:49.077Z,7.27
2022-11-23T21:34:21.612Z,7.40
2022-11-23T21:36:49.519Z,7.07
2022-11-23T21:39:17.237Z,8.57
2022-11-23T21:41:44.854Z,8.10
2022-11-23T21:44:12.393Z,8.90
2022-11-23T21:46:40.389Z,8.20
2022-11-23T21:49:07.929Z,8.53
2022-11-23T21:51:35.572Z,7.70
2022-11-23T21:54:04.826Z,8.17
2022-11-23T21:56:32.088Z,9.73
2022-11-23T21:58:59.471Z,9.83
2022-11-23T22:01:31.669Z,9.87
2022-11-23T22:04:01.234Z,8.87
2022-11-23T22:06:28.601Z,7.50
2022-11-23T22:08:57.143Z,8.03
2022-11-23T22:11:29.144Z,10.27
2022-11-23T22:14:07.403Z,8.63
2022-11-23T22:16:56.792Z,8.50
2022-11-23T22:19:24.251Z,10.93
2022-11-23T22:21:51.443Z,11.43
2022-11-23T22:24:20.254Z,12.03
2022-11-23T22:26:48.100Z,8.53
2022-11-23T22:29:15.363Z,8.57
2022-11-23T22:31:44.006Z,9.47
2022-11-23T22:34:12.089Z,9.93
2022-11-23T22:36:39.789Z,25.53
2022-11-23T22:39:07.235Z,11.07
2022-11-23T22:41:37.486Z,10.40
2022-11-23T22:44:08.209Z,7.67
2022-11-23T22:46:35.788Z,8.80
2022-11-23T22:49:03.143Z,8.27
2022-11-23T22:51:30.651Z,8.67
2022-11-23T22:53:59.154Z,9.03
2022-11-23T22:56:27.001Z,11.53
2022-11-23T22:58:54.484Z,10.20
2022-11-23T23:01:23.263Z,11.00
2022-11-23T23:03:55.875Z,11.10
2022-11-23T23:06:24.768Z,8.03
2022-11-23T23:08:56.192Z,10.80
2022-11-23T23:11:23.835Z,10.03
2022-11-23T23:13:51.305Z,10.27
2022-11-23T23:16:18.699Z,9.77
2022-11-23T23:18:46.076Z,9.60
2022-11-23T23:21:14.772Z,10.07
2022-11-23T23:23:45.628Z,6.80
2022-11-23T23:26:13.724Z,8.00
2022-11-23T23:28:41.234Z,7.87
2022-11-23T23:31:12.821Z,8.37
2022-11-23T23:33:40.188Z,13.90
2022-11-23T23:36:08.109Z,10.07
2022-11-23T23:38:35.602Z,12.00
2022-11-23T23:41:02.866Z,8.97
2022-11-23T23:43:29.948Z,10.23
2022-11-23T23:45:59.344Z,7.10
2022-11-23T23:48:29.928Z,8.23
2022-11-23T23:50:57.256Z,7.50
2022-11-23T23:53:24.397Z,19.27
2022-11-23T23:55:58.322Z,12.97
2022-11-23T23:58:25.757Z,8.20
